createdAt,value
2019-01-22T00:01:20.990Z,90.00
2019-01-22T00:03:52.457Z,90.20
2019-01-22T00:06:24.054Z,90.20
2019-01-22T00:08:55.415Z,89.80
2019-01-22T00:11:26.929Z,89.50
2019-01-22T00:13:58.498Z,89.50
2019-01-22T00:16:29.898Z,90.20
2019-01-22T00:19:01.277Z,90.00
2019-01-22T00:21:32.736Z,90.60
2019-01-22T00:24:04.467Z,90.90
2019-01-22T00:26:35.942Z,90.90
2019-01-22T00:29:07.719Z,91.00
2019-01-22T00:31:39.213Z,91.10
2019-01-22T00:34:10.511Z,91.10
2019-01-22T00:36:42.027Z,91.20
2019-01-22T00:39:13.447Z,91.30
2019-01-22T00:41:44.916Z,91.20
2019-01-22T00:44:16.369Z,91.30
2019-01-22T00:46:47.761Z,91.40
2019-01-22T00:49:19.061Z,91.20
2019-01-22T00:51:51.167Z,91.00
2019-01-22T00:54:22.627Z,90.90
2019-01-22T00:56:53.959Z,90.90
2019-01-22T00:59:25.497Z,91.30
2019-01-22T01:01:57.049Z,91.30
2019-01-22T01:04:28.429Z,90.70
2019-01-22T01:07:00.020Z,90.60
2019-01-22T01:09:31.482Z,90.20
2019-01-22T01:12:02.876Z,90.10
2019-01-22T01:14:34.260Z,90.20
2019-01-22T01:17:05.901Z,90.10
2019-01-22T01:19:37.268Z,90.40
2019-01-22T01:22:08.784Z,90.30
2019-01-22T01:24:40.077Z,90.30
2019-01-22T01:27:12.130Z,90.50
2019-01-22T01:29:43.442Z,90.50
2019-01-22T01:32:14.791Z,90.40
2019-01-22T01:34:46.180Z,90.50
2019-01-22T01:37:17.560Z,90.40
2019-01-22T01:39:49.126Z,90.60
2019-01-22T01:42:20.465Z,90.90
2019-01-22T01:44:51.808Z,91.00
2019-01-22T01:47:23.152Z,90.60
2019-01-22T01:49:54.464Z,90.70
2019-01-22T01:52:25.816Z,90.60
2019-01-22T01:54:57.199Z,90.80
2019-01-22T01:57:28.620Z,90.50
2019-01-22T01:59:59.975Z,90.30
2019-01-22T02:02:31.524Z,90.40
2019-01-22T02:05:02.831Z,90.00
2019-01-22T02:07:34.315Z,89.20
2019-01-22T02:10:12.812Z,90.00
2019-01-22T02:13:07.171Z,89.90
2019-01-22T02:16:04.544Z,89.80
2019-01-22T02:18:52.732Z,90.20
2019-01-22T02:21:34.507Z,90.30
2019-01-22T02:24:26.103Z,90.50
2019-01-22T02:27:02.192Z,90.60
2019-01-22T02:30:07.178Z,90.90
2019-01-22T02:33:22.168Z,91.10
2019-01-22T02:36:25.474Z,91.20
2019-01-22T02:39:48.504Z,90.90
2019-01-22T02:42:36.741Z,90.80
2019-01-22T02:45:24.229Z,91.00
2019-01-22T02:48:02.983Z,91.00
2019-01-22T02:51:00.039Z,91.20
2019-01-22T02:53:38.877Z,91.30
2019-01-22T02:56:38.232Z,91.30
2019-01-22T02:59:22.582Z,91.50
2019-01-22T03:02:01.355Z,91.70
2019-01-22T03:04:46.351Z,91.70
2019-01-22T03:07:31.291Z,91.60
2019-01-22T03:10:19.533Z,91.60
2019-01-22T03:13:13.192Z,91.30
2019-01-22T03:16:24.023Z,90.90
2019-01-22T03:19:08.973Z,91.10
2019-01-22T03:21:59.274Z,91.10
2019-01-22T03:24:49.915Z,91.10
2019-01-22T03:27:28.702Z,91.20
2019-01-22T03:30:30.351Z,91.50
2019-01-22T03:33:19.732Z,91.40
2019-01-22T03:36:01.826Z,91.30
2019-01-22T03:39:03.411Z,91.30
2019-01-22T03:42:14.204Z,91.30
2019-01-22T03:45:08.420Z,91.10
2019-01-22T03:48:05.502Z,91.10
2019-01-22T03:51:08.621Z,90.90
2019-01-22T03:54:08.023Z,91.30
2019-01-22T03:57:20.211Z,91.70
2019-01-22T03:59:51.662Z,91.90
2019-01-22T04:02:24.677Z,91.80
2019-01-22T04:04:56.064Z,91.90
2019-01-22T04:07:27.785Z,91.90
2019-01-22T04:10:00.719Z,91.90
2019-01-22T04:12:46.478Z,92.00
2019-01-22T04:15:22.980Z,92.00
2019-01-22T04:17:54.477Z,92.00
2019-01-22T04:20:25.971Z,92.10
2019-01-22T04:22:58.084Z,92.30
2019-01-22T04:25:42.723Z,92.20
2019-01-22T04:28:42.923Z,92.40
2019-01-22T04:31:21.690Z,92.40
2019-01-22T04:34:32.536Z,92.70
2019-01-22T04:37:30.930Z,93.00
2019-01-22T04:40:34.014Z,93.70
2019-01-22T04:43:35.773Z,94.40
2019-01-22T04:46:33.536Z,94.80
2019-01-22T04:49:15.365Z,95.30
2019-01-22T04:52:12.043Z,95.90
2019-01-22T04:55:11.688Z,96.30
2019-01-22T04:57:50.662Z,96.70
2019-01-22T05:00:47.784Z,96.90
2019-01-22T05:03:38.535Z,97.20
2019-01-22T05:06:23.557Z,97.40
2019-01-22T05:09:13.195Z,97.40
2019-01-22T05:12:09.907Z,97.50
2019-01-22T05:15:09.747Z,97.70
2019-01-22T05:17:54.455Z,97.80
2019-01-22T05:20:30.500Z,97.80
2019-01-22T05:23:09.165Z,97.70
2019-01-22T05:26:00.387Z,97.70
2019-01-22T05:28:57.499Z,97.60
2019-01-22T05:31:42.376Z,97.40
2019-01-22T05:34:41.784Z,97.30
2019-01-22T05:37:26.502Z,97.30
2019-01-22T05:40:20.426Z,97.20
2019-01-22T05:43:14.193Z,97.20
2019-01-22T05:45:59.242Z,97.10
2019-01-22T05:49:10.217Z,97.10
2019-01-22T05:51:57.910Z,97.20
2019-01-22T05:54:42.612Z,97.40
2019-01-22T05:57:16.268Z,97.80
2019-01-22T06:00:04.572Z,98.00
2019-01-22T06:02:40.682Z,98.10
2019-01-22T06:05:41.982Z,98.70
2019-01-22T06:08:26.778Z,98.90
2019-01-22T06:11:29.720Z,99.30
2019-01-22T06:14:31.447Z,99.50
2019-01-22T06:17:22.255Z,99.90
2019-01-22T06:20:19.019Z,99.90
2019-01-22T06:23:11.736Z,99.90
2019-01-22T06:25:59.600Z,99.90
2019-01-22T06:28:47.178Z,99.90
2019-01-22T06:31:37.875Z,99.90
2019-01-22T06:34:33.486Z,99.90
2019-01-22T06:37:12.270Z,99.90
2019-01-22T06:39:59.720Z,99.90
2019-01-22T06:42:41.072Z,99.90
2019-01-22T06:45:51.490Z,99.90
2019-01-22T06:48:48.638Z,99.90
2019-01-22T06:51:54.810Z,99.90
2019-01-22T06:55:04.258Z,99.90
2019-01-22T06:58:11.680Z,99.90
2019-01-22T07:00:53.383Z,99.90
2019-01-22T07:03:44.406Z,99.90
2019-01-22T07:06:39.796Z,99.90
2019-01-22T07:09:38.739Z,99.90
2019-01-22T07:12:32.159Z,99.90
2019-01-22T07:15:59.584Z,99.90
2019-01-22T07:18:44.420Z,99.90
2019-01-22T07:21:39.731Z,98.90
2019-01-22T07:24:37.955Z,98.30
2019-01-22T07:27:28.906Z,97.40
2019-01-22T07:30:42.990Z,97.30
2019-01-22T07:33:44.555Z,97.10
2019-01-22T07:36:41.832Z,96.90
2019-01-22T07:39:26.499Z,96.80
2019-01-22T07:42:11.170Z,96.80
2019-01-22T07:44:58.934Z,96.90
2019-01-22T07:47:34.928Z,96.90
2019-01-22T07:50:31.748Z,96.80
2019-01-22T07:53:13.869Z,96.50
2019-01-22T07:56:12.350Z,96.10
2019-01-22T07:58:48.462Z,96.30
2019-01-22T08:01:39.432Z,96.40
2019-01-22T08:04:49.188Z,96.60
2019-01-22T08:07:49.561Z,96.60
2019-01-22T08:10:42.941Z,96.40
2019-01-22T08:13:53.535Z,96.40
2019-01-22T08:16:49.972Z,96.40
2019-01-22T08:19:46.950Z,96.50
2019-01-22T08:22:58.652Z,96.60
2019-01-22T08:25:45.874Z,96.50
2019-01-22T08:28:30.961Z,96.30
2019-01-22T08:31:18.778Z,96.30
2019-01-22T08:34:12.670Z,96.30
2019-01-22T08:37:14.274Z,96.30
2019-01-22T08:40:02.344Z,96.20
2019-01-22T08:43:13.289Z,96.30
2019-01-22T08:45:58.059Z,96.10
2019-01-22T08:48:49.409Z,96.00
2019-01-22T08:51:45.044Z,96.10
2019-01-22T08:54:46.169Z,96.10
2019-01-22T08:57:24.576Z,96.20
2019-01-22T09:00:17.047Z,96.20
2019-01-22T09:03:27.654Z,96.00
2019-01-22T09:06:24.716Z,95.90
2019-01-22T09:09:30.127Z,95.90
2019-01-22T09:12:34.670Z,96.00
2019-01-22T09:15:37.455Z,96.30
2019-01-22T09:18:25.520Z,96.20
2019-01-22T09:21:10.412Z,96.20
2019-01-22T09:23:53.361Z,96.10
2019-01-22T09:26:44.119Z,96.30
2019-01-22T09:29:28.420Z,96.50
2019-01-22T09:32:10.439Z,96.50
2019-01-22T09:35:01.625Z,96.60
2019-01-22T09:37:34.601Z,96.60
2019-01-22T09:40:09.951Z,96.60
2019-01-22T09:42:41.303Z,96.60
2019-01-22T09:45:12.900Z,96.70
2019-01-22T09:47:44.361Z,96.60
2019-01-22T09:50:15.959Z,96.80
2019-01-22T09:52:48.500Z,96.80
2019-01-22T09:55:22.451Z,97.00
2019-01-22T09:57:53.064Z,97.20
2019-01-22T10:00:24.862Z,97.40
2019-01-22T10:02:56.376Z,97.50
2019-01-22T10:05:28.827Z,97.60
2019-01-22T10:08:00.311Z,97.50
2019-01-22T10:10:31.970Z,97.40
2019-01-22T10:13:03.472Z,97.40
2019-01-22T10:15:35.085Z,97.20
2019-01-22T10:18:06.789Z,96.90
2019-01-22T10:20:38.516Z,96.90
2019-01-22T10:23:10.986Z,96.90
2019-01-22T10:25:42.462Z,97.00
2019-01-22T10:28:13.834Z,97.00
2019-01-22T10:30:45.241Z,97.10
2019-01-22T10:33:16.614Z,97.10
2019-01-22T10:35:48.134Z,97.10
2019-01-22T10:38:19.515Z,96.90
2019-01-22T10:40:51.310Z,96.70
2019-01-22T10:43:22.672Z,96.80
2019-01-22T10:45:54.089Z,96.90
2019-01-22T10:48:25.532Z,96.70
2019-01-22T10:50:56.978Z,96.70
2019-01-22T10:57:02.938Z,96.60
2019-01-22T10:59:34.389Z,96.70
2019-01-22T11:02:06.056Z,96.70
2019-01-22T11:04:43.423Z,96.50
2019-01-22T11:07:16.260Z,96.30
2019-01-22T11:09:47.931Z,96.30
2019-01-22T11:12:24.287Z,96.60
2019-01-22T11:14:55.606Z,96.20
2019-01-22T11:17:26.903Z,96.10
2019-01-22T11:19:58.326Z,96.20
2019-01-22T11:22:29.944Z,96.30
2019-01-22T11:25:07.068Z,96.40
2019-01-22T11:27:38.431Z,96.30
2019-01-22T11:30:17.432Z,96.20
2019-01-22T11:32:50.326Z,96.50
2019-01-22T11:35:24.567Z,96.40
2019-01-22T11:37:55.971Z,96.40
2019-01-22T11:40:34.178Z,96.30
2019-01-22T11:43:05.729Z,96.10
2019-01-22T11:45:37.224Z,96.00
2019-01-22T11:48:10.757Z,96.00
2019-01-22T11:50:42.138Z,95.70
2019-01-22T11:53:13.511Z,95.80
2019-01-22T11:55:50.472Z,95.40
2019-01-22T11:58:20.169Z,95.40
2019-01-22T12:00:53.123Z,95.50
2019-01-22T12:03:26.116Z,95.30
2019-01-22T12:05:57.503Z,95.40
2019-01-22T12:08:29.478Z,95.70
2019-01-22T12:11:01.199Z,95.30
2019-01-22T12:13:32.752Z,95.60
2019-01-22T12:16:04.275Z,95.60
2019-01-22T12:18:36.433Z,95.60
2019-01-22T12:21:08.086Z,95.20
2019-01-22T12:23:39.708Z,95.10
2019-01-22T12:26:13.274Z,95.20
2019-01-22T12:28:47.419Z,95.00
2019-01-22T12:31:30.097Z,94.90
2019-01-22T12:34:12.430Z,95.00
2019-01-22T12:38:46.662Z,95.20
2019-01-22T12:58:20.790Z,95.20
2019-01-22T13:00:52.724Z,94.30
2019-01-22T13:03:27.050Z,94.40
2019-01-22T13:06:04.970Z,94.70
2019-01-22T13:08:38.658Z,94.70
2019-01-22T13:11:12.409Z,94.90
2019-01-22T13:13:56.626Z,95.00
2019-01-22T13:16:31.660Z,95.10
2019-01-22T13:19:04.493Z,95.30
2019-01-22T13:21:40.359Z,95.20
2019-01-22T13:24:12.257Z,95.40
2019-01-22T13:26:49.483Z,95.30
2019-01-22T13:29:21.939Z,95.10
2019-01-22T13:31:54.452Z,95.10
2019-01-22T13:34:28.527Z,95.20
2019-01-22T13:37:00.219Z,95.20
2019-01-22T13:39:32.349Z,95.10
2019-01-22T13:42:04.205Z,95.00
2019-01-22T13:44:38.298Z,95.00
2019-01-22T13:47:29.514Z,95.20
2019-01-22T13:50:02.036Z,95.10
2019-01-22T13:52:35.256Z,94.90
2019-01-22T13:55:11.606Z,94.80
2019-01-22T13:57:47.731Z,95.10
2019-01-22T14:00:26.910Z,95.20
2019-01-22T14:03:00.794Z,95.10
2019-01-22T14:05:32.426Z,95.10
2019-01-22T14:08:05.473Z,95.00
2019-01-22T14:10:38.464Z,95.00
2019-01-22T14:13:09.874Z,94.80
2019-01-22T14:15:42.305Z,95.00
2019-01-22T14:18:15.397Z,95.10
2019-01-22T14:20:46.987Z,94.90
2019-01-22T14:23:18.454Z,95.10
2019-01-22T14:25:50.046Z,95.10
2019-01-22T14:28:21.569Z,95.10
2019-01-22T14:30:53.162Z,95.20
2019-01-22T14:33:24.849Z,95.20
2019-01-22T14:35:56.497Z,95.20
2019-01-22T14:38:29.707Z,95.20
2019-01-22T14:41:03.958Z,95.20
2019-01-22T14:43:38.730Z,95.10
2019-01-22T14:46:10.405Z,95.40
2019-01-22T14:48:43.343Z,95.30
2019-01-22T14:51:15.246Z,95.30
2019-01-22T14:53:49.949Z,95.30
2019-01-22T14:56:21.535Z,95.30
2019-01-22T14:58:54.928Z,95.30
2019-01-22T15:01:27.827Z,95.20
2019-01-22T15:03:59.636Z,95.30
2019-01-22T15:06:33.363Z,95.30
2019-01-22T15:09:06.731Z,95.20
2019-01-22T15:11:38.255Z,95.40
2019-01-22T15:14:09.684Z,95.50
2019-01-22T15:16:41.011Z,95.40
2019-01-22T15:19:12.601Z,95.50
2019-01-22T15:21:43.940Z,95.50
2019-01-22T15:24:15.338Z,95.40
2019-01-22T15:26:46.670Z,95.40
2019-01-22T15:29:17.986Z,95.40
2019-01-22T15:31:49.282Z,95.30
2019-01-22T15:34:20.666Z,95.10
2019-01-22T15:36:53.296Z,95.00
2019-01-22T15:39:24.716Z,94.90
2019-01-22T15:41:56.015Z,94.90
2019-01-22T15:44:27.652Z,94.90
2019-01-22T15:46:59.168Z,94.90
2019-01-22T15:49:30.629Z,94.50
2019-01-22T15:52:01.899Z,94.20
2019-01-22T15:54:33.449Z,94.10
2019-01-22T15:57:04.797Z,94.00
2019-01-22T15:59:36.221Z,94.10
2019-01-22T16:02:07.912Z,94.10
2019-01-22T16:04:39.529Z,93.70
2019-01-22T16:07:11.191Z,93.40
2019-01-22T16:09:42.706Z,93.40
2019-01-22T16:12:14.064Z,93.50
2019-01-22T16:14:45.579Z,93.60
2019-01-22T16:17:18.663Z,93.60
2019-01-22T16:19:50.069Z,93.40
2019-01-22T16:22:21.487Z,93.30
2019-01-22T16:24:53.313Z,93.30
2019-01-22T16:27:27.940Z,93.30
2019-01-22T16:29:59.652Z,93.10
2019-01-22T16:32:31.120Z,92.90
2019-01-22T16:35:02.920Z,92.80
2019-01-22T16:37:34.583Z,92.80
2019-01-22T16:40:13.463Z,92.70
2019-01-22T16:42:46.150Z,92.70
2019-01-22T16:45:27.750Z,92.70
2019-01-22T16:47:59.537Z,92.70
2019-01-22T16:50:33.751Z,93.10
2019-01-22T16:53:07.596Z,93.80
2019-01-22T16:55:41.197Z,94.20
2019-01-22T16:58:12.954Z,94.30
2019-01-22T17:00:44.637Z,94.20
2019-01-22T17:03:16.301Z,92.80
2019-01-22T17:05:56.287Z,92.90
2019-01-22T17:08:27.577Z,93.00
2019-01-22T17:10:58.848Z,92.80
2019-01-22T17:13:32.477Z,92.70
2019-01-22T17:20:25.963Z,92.50
2019-01-22T17:23:01.925Z,93.10
2019-01-22T17:25:31.118Z,93.30
2019-01-22T17:28:02.630Z,93.40
2019-01-22T17:30:34.125Z,93.40
2019-01-22T17:33:12.584Z,93.00
2019-01-22T17:35:43.743Z,92.70
2019-01-22T17:38:15.606Z,92.00
2019-01-22T17:40:49.884Z,91.70
2019-01-22T17:43:21.487Z,91.50
2019-01-22T17:45:53.253Z,91.60
2019-01-22T17:48:24.799Z,91.60
2019-01-22T17:50:56.321Z,91.80
2019-01-22T17:53:27.761Z,92.00
2019-01-22T17:56:01.545Z,92.30
2019-01-22T17:58:38.940Z,92.30
2019-01-22T18:01:14.761Z,92.50
2019-01-22T18:03:50.910Z,92.60
2019-01-22T18:06:22.624Z,92.60
2019-01-22T18:08:54.182Z,92.70
2019-01-22T18:11:29.894Z,92.80
2019-01-22T18:14:03.272Z,92.70
2019-01-22T18:16:35.174Z,92.70
2019-01-22T18:19:06.884Z,92.80
2019-01-22T18:21:42.393Z,92.90
2019-01-22T18:24:15.594Z,93.50
2019-01-22T18:26:47.082Z,93.30
2019-01-22T18:29:18.822Z,92.90
2019-01-22T18:31:51.977Z,92.80
2019-01-22T18:34:23.435Z,92.80
2019-01-22T18:36:54.948Z,93.00
2019-01-22T18:39:26.716Z,93.30
2019-01-22T18:41:58.213Z,93.20
2019-01-22T18:44:35.584Z,93.10
2019-01-22T18:47:14.549Z,92.90
2019-01-22T18:49:47.667Z,93.10
2019-01-22T18:52:19.446Z,92.90
2019-01-22T18:54:55.398Z,93.10
2019-01-22T18:57:27.575Z,93.00
2019-01-22T18:59:59.154Z,92.90
2019-01-22T19:02:32.296Z,92.80
2019-01-22T19:05:04.546Z,93.00
2019-01-22T19:07:36.683Z,93.00
2019-01-22T19:10:21.146Z,92.80
2019-01-22T19:12:54.145Z,92.80
2019-01-22T19:15:28.605Z,92.80
2019-01-22T19:18:04.517Z,92.70
2019-01-22T19:20:39.202Z,92.80
2019-01-22T19:23:10.916Z,92.50
2019-01-22T19:25:44.546Z,92.50
2019-01-22T19:28:17.446Z,92.80
2019-01-22T19:30:49.918Z,92.60
2019-01-22T19:33:23.148Z,92.80
2019-01-22T19:35:54.860Z,92.80
2019-01-22T19:38:26.227Z,92.70
2019-01-22T19:40:57.770Z,92.80
2019-01-22T19:43:33.586Z,92.60
2019-01-22T19:46:05.542Z,92.50
2019-01-22T19:48:38.620Z,92.60
2019-01-22T19:51:10.281Z,93.30
2019-01-22T19:53:42.014Z,92.80
2019-01-22T19:56:16.485Z,92.80
2019-01-22T19:58:47.994Z,92.60
2019-01-22T20:01:21.737Z,92.90
2019-01-22T20:03:53.320Z,93.00
2019-01-22T20:06:24.873Z,93.30
2019-01-22T20:08:56.185Z,93.20
2019-01-22T20:11:27.654Z,93.30
2019-01-22T20:13:59.027Z,93.40
2019-01-22T20:16:30.504Z,93.30
2019-01-22T20:19:02.820Z,93.20
2019-01-22T20:21:34.169Z,93.20
2019-01-22T20:24:08.126Z,93.30
2019-01-22T20:26:41.045Z,93.30
2019-01-22T20:29:12.380Z,93.40
2019-01-22T20:31:43.745Z,93.50
2019-01-22T20:34:14.992Z,93.60
2019-01-22T20:36:46.354Z,93.60
2019-01-22T20:39:30.562Z,93.50
2019-01-22T20:42:02.084Z,93.30
2019-01-22T20:44:33.393Z,93.50
2019-01-22T20:47:04.828Z,93.50
2019-01-22T20:49:36.185Z,93.50
2019-01-22T20:52:07.710Z,93.60
2019-01-22T20:54:39.092Z,93.60
2019-01-22T20:57:10.639Z,93.60
2019-01-22T20:59:41.931Z,93.70
2019-01-22T21:02:13.373Z,93.30
2019-01-22T21:04:44.988Z,93.10
2019-01-22T21:07:16.378Z,93.10
2019-01-22T21:09:49.225Z,93.00
2019-01-22T21:12:20.705Z,92.90
2019-01-22T21:14:53.174Z,93.30
2019-01-22T21:17:24.709Z,93.50
2019-01-22T21:20:01.924Z,93.50
2019-01-22T21:22:30.817Z,92.90
2019-01-22T21:25:02.056Z,92.90
2019-01-22T21:27:33.768Z,92.90
2019-01-22T21:30:09.581Z,92.80
2019-01-22T21:32:42.358Z,93.30
2019-01-22T21:35:13.747Z,93.00
2019-01-22T21:37:45.124Z,93.40
2019-01-22T21:40:17.690Z,92.90
2019-01-22T21:42:51.832Z,92.90
2019-01-22T21:45:28.922Z,92.40
2019-01-22T21:48:01.255Z,92.10
2019-01-22T21:50:32.767Z,92.00
2019-01-22T21:53:04.541Z,92.10
2019-01-22T21:55:35.889Z,92.00
2019-01-22T21:58:08.611Z,92.00
2019-01-22T22:00:40.265Z,91.80
2019-01-22T22:03:11.779Z,91.90
2019-01-22T22:05:43.088Z,91.90
2019-01-22T22:08:14.459Z,91.90
2019-01-22T22:10:45.900Z,91.90
2019-01-22T22:13:17.417Z,91.80
2019-01-22T22:15:51.517Z,91.80
2019-01-22T22:18:22.883Z,91.90
2019-01-22T22:20:54.210Z,91.90
2019-01-22T22:23:25.571Z,91.90
2019-01-22T22:25:56.852Z,91.90
2019-01-22T22:28:28.213Z,91.90
2019-01-22T22:30:59.575Z,92.00
2019-01-22T22:33:30.897Z,92.00
2019-01-22T22:36:02.160Z,92.00
2019-01-22T22:38:33.495Z,92.00
2019-01-22T22:41:05.016Z,91.90
2019-01-22T22:43:36.461Z,92.10
2019-01-22T22:46:07.972Z,91.70
2019-01-22T22:48:39.369Z,91.90
2019-01-22T22:51:10.712Z,92.00
2019-01-22T22:53:42.164Z,91.80
2019-01-22T22:56:13.512Z,91.90
2019-01-22T22:58:44.854Z,92.10
2019-01-22T23:01:24.011Z,92.10
2019-01-22T23:03:56.579Z,92.30
2019-01-22T23:06:28.043Z,92.40
2019-01-22T23:08:59.511Z,92.20
2019-01-22T23:11:30.868Z,92.20
2019-01-22T23:14:02.301Z,92.00
2019-01-22T23:16:33.768Z,91.80
2019-01-22T23:19:05.314Z,91.90
2019-01-22T23:21:37.732Z,91.90
2019-01-22T23:24:09.270Z,91.90
2019-01-22T23:26:40.689Z,92.10
2019-01-22T23:29:12.228Z,92.30
2019-01-22T23:31:43.624Z,92.50
2019-01-22T23:34:15.125Z,92.50
2019-01-22T23:36:46.548Z,92.40
2019-01-22T23:39:17.861Z,92.70
2019-01-22T23:41:49.299Z,92.30
2019-01-22T23:44:20.799Z,92.30
2019-01-22T23:46:52.259Z,92.30
2019-01-22T23:49:23.662Z,92.80
2019-01-22T23:51:55.026Z,92.60
2019-01-22T23:54:26.462Z,92.30
2019-01-22T23:56:58.374Z,92.20
2019-01-22T23:59:29.890Z,92.30
